Time;durP1;ratioP1;P1;durP2;ratioP2;P2;SDS_P1;SDS_P2;PMS_P1;PMS_P2;Temp;Humidity;BMP_temperature;BMP_pressure;BME280_temperature;BME280_humidity;BME280_pressure;Samples;Min_cycle;Max_cycle;Signal;HPM_P1;HPM_P2
2022/11/25 00:01:16;;;;;;;25.17;10.43;;;9.00;99.90;;;;;;5070145;28;20017;-77
2022/11/25 00:03:43;;;;;;;25.95;11.50;;;9.00;99.90;;;;;;5072976;28;20029;-77
2022/11/25 00:06:17;;;;;;;45.22;19.92;;;9.00;99.90;;;;;;5065580;28;20083;-77
2022/11/25 00:08:45;;;;;;;48.65;19.52;;;9.00;99.90;;;;;;5066047;28;20033;-77
2022/11/25 00:11:11;;;;;;;35.47;13.50;;;9.10;99.90;;;;;;5071313;28;20017;-78
2022/11/25 00:13:39;;;;;;;35.25;17.92;;;9.00;99.90;;;;;;5065928;28;20029;-77
2022/11/25 00:16:10;;;;;;;75.57;38.28;;;9.00;99.90;;;;;;5069563;28;20023;-77
2022/11/25 00:18:36;;;;;;;129.75;68.43;;;9.00;99.90;;;;;;5064653;28;20021;-77
2022/11/25 00:21:10;;;;;;;27.95;12.20;;;9.00;99.90;;;;;;5070310;28;20029;-77
2022/11/25 00:23:36;;;;;;;19.50;8.48;;;8.90;99.90;;;;;;5070086;28;20413;-77
2022/11/25 00:26:09;;;;;;;46.13;20.63;;;8.80;99.90;;;;;;5070483;28;20039;-78
2022/11/25 00:28:36;;;;;;;22.92;7.60;;;8.70;99.90;;;;;;5073296;28;20109;-78
2022/11/25 00:31:13;;;;;;;25.05;8.63;;;8.70;99.90;;;;;;5069751;28;20025;-77
2022/11/25 00:33:39;;;;;;;116.78;60.40;;;8.60;99.90;;;;;;5065831;28;20017;-78
2022/11/25 00:36:13;;;;;;;37.70;15.43;;;8.60;99.90;;;;;;5074846;28;20021;-78
2022/11/25 00:38:38;;;;;;;25.77;8.80;;;8.60;99.90;;;;;;5075654;28;20392;-78
2022/11/25 00:46:33;;;;;;;24.08;7.53;;;8.50;99.90;;;;;;5072910;28;20027;-77
2022/11/25 00:48:59;;;;;;;27.90;7.65;;;8.40;99.90;;;;;;5075989;28;20484;-77
2022/11/25 00:51:24;;;;;;;20.77;7.40;;;8.30;99.90;;;;;;5076293;28;20103;-77
2022/11/25 00:53:50;;;;;;;23.77;8.52;;;8.20;99.90;;;;;;5068850;28;20092;-78
2022/11/25 00:56:16;;;;;;;36.05;9.85;;;8.20;99.90;;;;;;5066983;28;20020;-77
2022/11/25 00:58:43;;;;;;;28.42;13.85;;;8.10;99.90;;;;;;5073280;28;20060;-77
2022/11/25 01:01:10;;;;;;;30.35;8.80;;;8.10;99.90;;;;;;5071090;28;20009;-77
2022/11/25 01:03:36;;;;;;;27.13;8.95;;;8.00;99.90;;;;;;5075038;28;20029;-77
2022/11/25 01:06:10;;;;;;;93.07;56.70;;;8.00;99.90;;;;;;5070203;28;20013;-77
2022/11/25 01:08:37;;;;;;;28.17;10.40;;;8.00;99.90;;;;;;5074306;28;20035;-77
2022/11/25 01:11:06;;;;;;;21.60;8.40;;;8.00;99.90;;;;;;5071580;28;20028;-77
2022/11/25 01:13:32;;;;;;;37.45;13.35;;;8.00;99.90;;;;;;5072635;28;20032;-77
2022/11/25 01:16:02;;;;;;;28.73;8.15;;;8.00;99.90;;;;;;5071482;28;20024;-77
2022/11/25 01:18:29;;;;;;;28.08;9.38;;;7.90;99.90;;;;;;5070390;28;20039;-77
2022/11/25 01:20:55;;;;;;;22.60;11.98;;;7.90;99.90;;;;;;5071595;28;20373;-77
2022/11/25 01:23:21;;;;;;;61.70;32.47;;;7.90;99.90;;;;;;5067810;28;20036;-77
2022/11/25 01:25:46;;;;;;;24.13;9.90;;;7.90;99.90;;;;;;5070901;28;20069;-77
2022/11/25 01:28:15;;;;;;;44.45;17.55;;;7.90;99.90;;;;;;5065911;28;20020;-77
2022/11/25 01:30:41;;;;;;;65.47;38.33;;;7.80;99.90;;;;;;5068018;28;20032;-77
2022/11/25 01:33:06;;;;;;;41.33;23.40;;;7.80;99.90;;;;;;5061613;28;20032;-77
2022/11/25 01:35:36;;;;;;;76.30;44.10;;;7.80;99.90;;;;;;5062955;28;20029;-77
2022/11/25 01:38:02;;;;;;;26.80;12.67;;;7.80;99.90;;;;;;5074633;28;20118;-77
2022/11/25 01:40:28;;;;;;;20.63;10.55;;;7.70;99.90;;;;;;5065154;28;20056;-77
2022/11/25 01:42:53;;;;;;;25.25;10.18;;;7.70;99.90;;;;;;5072713;28;20029;-77
2022/11/25 01:45:22;;;;;;;57.83;35.10;;;7.70;99.90;;;;;;5070943;28;20025;-77
2022/11/25 01:47:50;;;;;;;47.45;23.42;;;7.70;99.90;;;;;;5073336;28;20512;-77
2022/11/25 01:50:19;;;;;;;64.85;38.40;;;7.60;99.90;;;;;;5066916;28;20030;-77
2022/11/25 01:52:49;;;;;;;27.83;12.23;;;7.60;99.90;;;;;;5064440;28;20043;-77
2022/11/25 01:55:19;;;;;;;30.58;12.35;;;7.60;99.90;;;;;;5072314;28;20093;-77
2022/11/25 01:58:00;;;;;;;28.33;12.63;;;7.60;99.90;;;;;;5078903;28;20429;-77
2022/11/25 02:00:26;;;;;;;39.63;19.25;;;7.60;99.90;;;;;;5062998;28;20564;-77
2022/11/25 02:02:54;;;;;;;24.25;11.52;;;7.50;99.90;;;;;;5075381;28;20444;-77
2022/11/25 02:05:25;;;;;;;28.45;12.57;;;7.50;99.90;;;;;;5067877;28;20052;-77
2022/11/25 02:07:53;;;;;;;31.60;16.20;;;7.50;99.90;;;;;;5075207;28;20054;-77
2022/11/25 02:10:24;;;;;;;26.80;12.57;;;7.50;99.90;;;;;;5068561;28;20061;-77
2022/11/25 02:12:50;;;;;;;32.33;11.00;;;7.40;99.90;;;;;;5063329;28;20464;-77
2022/11/25 02:15:17;;;;;;;35.78;11.18;;;7.40;99.90;;;;;;5070300;28;20165;-77
2022/11/25 02:17:43;;;;;;;28.60;13.90;;;7.50;99.90;;;;;;5075763;28;20044;-77
2022/11/25 02:20:14;;;;;;;31.90;14.57;;;7.50;99.90;;;;;;5070118;28;20036;-77
2022/11/25 02:22:55;;;;;;;40.15;23.13;;;7.50;99.90;;;;;;5069551;28;20128;-77
2022/11/25 02:25:32;;;;;;;33.90;14.45;;;7.50;99.90;;;;;;5065484;28;20412;-77
2022/11/25 02:28:07;;;;;;;59.17;32.42;;;7.60;99.90;;;;;;5061925;28;20025;-77
2022/11/25 02:30:34;;;;;;;36.30;20.88;;;7.60;99.90;;;;;;5065004;28;20028;-77
2022/11/25 02:33:00;;;;;;;97.78;61.67;;;7.60;99.90;;;;;;5063788;28;20017;-77
2022/11/25 02:35:53;;;;;;;78.68;51.47;;;7.70;99.90;;;;;;5069049;28;20143;-77
2022/11/25 02:38:35;;;;;;;73.60;48.22;;;7.70;99.90;;;;;;5069610;28;20029;-77
2022/11/25 02:41:01;;;;;;;109.13;73.10;;;7.70;99.90;;;;;;5069453;28;20035;-78
2022/11/25 02:43:26;;;;;;;82.88;50.13;;;7.70;99.90;;;;;;5073591;28;20488;-78
2022/11/25 02:45:55;;;;;;;181.50;111.20;;;7.60;99.90;;;;;;5070768;28;20021;-78
2022/11/25 02:48:22;;;;;;;99.75;65.70;;;7.50;99.90;;;;;;5067554;28;20029;-78
2022/11/25 02:50:48;;;;;;;47.17;30.10;;;7.50;99.90;;;;;;5063766;28;20033;-78
2022/11/25 02:53:15;;;;;;;99.15;57.35;;;7.40;99.90;;;;;;5063534;28;20027;-79
2022/11/25 02:55:41;;;;;;;18.67;12.05;;;7.40;99.90;;;;;;5070239;28;20017;-79
2022/11/25 02:58:07;;;;;;;29.60;16.52;;;7.40;99.90;;;;;;5072744;28;20032;-78
2022/11/25 03:00:34;;;;;;;22.05;14.35;;;7.30;99.90;;;;;;5062080;28;20056;-78
2022/11/25 03:03:00;;;;;;;24.40;11.18;;;7.30;99.90;;;;;;5074921;28;20017;-78
2022/11/25 03:05:26;;;;;;;40.58;22.35;;;7.30;99.90;;;;;;5066617;28;20028;-78
2022/11/25 03:07:52;;;;;;;21.50;13.02;;;7.30;99.90;;;;;;5074224;28;20042;-78
2022/11/25 03:10:18;;;;;;;23.77;14.55;;;7.50;99.90;;;;;;5067662;28;20040;-78
2022/11/25 03:12:44;;;;;;;19.08;11.13;;;7.50;99.90;;;;;;5071747;28;20025;-79
2022/11/25 03:15:11;;;;;;;78.63;49.80;;;7.50;99.90;;;;;;5068837;28;20037;-79
2022/11/25 03:17:36;;;;;;;24.30;8.88;;;7.60;99.90;;;;;;5069522;28;20070;-78
2022/11/25 03:20:06;;;;;;;31.55;16.80;;;7.60;99.90;;;;;;5067028;28;20021;-79
2022/11/25 03:22:32;;;;;;;22.77;13.82;;;7.70;99.90;;;;;;5071295;28;20048;-79
2022/11/25 03:24:58;;;;;;;14.95;8.93;;;7.80;99.90;;;;;;5061339;28;20049;-79
2022/11/25 03:27:24;;;;;;;22.80;13.13;;;7.80;99.90;;;;;;5069447;28;20025;-79
2022/11/25 03:29:49;;;;;;;19.20;10.02;;;7.80;99.90;;;;;;5064914;28;20056;-79
2022/11/25 03:32:15;;;;;;;41.58;26.92;;;7.80;99.90;;;;;;5064095;28;20075;-79
2022/11/25 03:34:41;;;;;;;19.20;11.48;;;7.80;99.90;;;;;;5063830;28;20090;-78
2022/11/25 03:37:07;;;;;;;23.92;14.82;;;7.80;99.90;;;;;;5068721;28;20036;-78
2022/11/25 03:39:33;;;;;;;24.90;10.85;;;7.80;99.90;;;;;;5063774;28;20075;-78
2022/11/25 03:41:59;;;;;;;36.22;22.58;;;7.80;99.90;;;;;;5072901;28;20020;-78
2022/11/25 03:44:24;;;;;;;24.77;16.95;;;7.90;99.90;;;;;;5067326;28;20040;-79
2022/11/25 03:46:50;;;;;;;24.63;12.38;;;7.90;99.90;;;;;;5064501;28;20107;-78
2022/11/25 03:49:16;;;;;;;17.95;13.50;;;7.80;99.90;;;;;;5070445;28;20116;-78
2022/11/25 03:51:42;;;;;;;28.02;20.40;;;7.80;99.90;;;;;;5067567;28;20056;-76
2022/11/25 03:54:08;;;;;;;35.25;19.35;;;7.80;99.90;;;;;;5069465;28;20094;-77
2022/11/25 03:56:34;;;;;;;51.35;38.65;;;7.70;99.90;;;;;;5073728;28;20020;-77
2022/11/25 03:59:00;;;;;;;46.00;32.65;;;7.60;99.90;;;;;;5073713;28;20058;-77
2022/11/25 04:01:26;;;;;;;36.20;22.50;;;7.60;99.90;;;;;;5063724;28;20021;-77
2022/11/25 04:03:51;;;;;;;12.90;7.75;;;7.60;99.90;;;;;;5071781;28;20488;-77
2022/11/25 04:06:19;;;;;;;12.68;8.02;;;7.60;99.90;;;;;;5068017;28;20021;-77
2022/11/25 04:08:45;;;;;;;18.23;9.35;;;7.60;99.90;;;;;;5064979;28;20681;-77
2022/11/25 04:11:11;;;;;;;16.33;8.57;;;7.60;99.90;;;;;;5068849;28;20024;-77
2022/11/25 04:13:37;;;;;;;27.10;16.77;;;7.50;99.90;;;;;;5069979;28;20104;-77
2022/11/25 04:16:03;;;;;;;14.80;10.30;;;7.50;99.90;;;;;;5068957;28;20059;-77
2022/11/25 04:18:28;;;;;;;38.58;28.83;;;7.60;99.90;;;;;;5067304;28;20075;-77
2022/11/25 04:20:54;;;;;;;21.13;12.77;;;7.60;99.90;;;;;;5068958;28;20021;-77
2022/11/25 04:23:20;;;;;;;17.95;11.98;;;7.50;99.90;;;;;;5066078;28;20047;-77
2022/11/25 04:25:49;;;;;;;18.52;10.90;;;7.50;99.90;;;;;;5060938;28;20052;-77
2022/11/25 04:28:15;;;;;;;16.83;9.70;;;7.40;99.90;;;;;;5061913;28;20028;-77
2022/11/25 04:30:41;;;;;;;12.77;6.75;;;7.40;99.90;;;;;;5061138;28;20493;-77
2022/11/25 04:33:07;;;;;;;16.10;6.68;;;7.40;99.90;;;;;;5060393;28;20106;-77
2022/11/25 04:35:33;;;;;;;18.73;13.43;;;7.40;99.90;;;;;;5066541;28;20074;-77
2022/11/25 04:37:59;;;;;;;15.38;9.57;;;7.40;99.90;;;;;;5074514;28;20024;-77
2022/11/25 04:40:24;;;;;;;20.38;9.77;;;7.40;99.90;;;;;;5070304;28;20031;-76
2022/11/25 04:42:50;;;;;;;28.35;8.35;;;7.30;99.90;;;;;;5070772;28;20024;-77
2022/11/25 04:45:17;;;;;;;19.02;7.45;;;7.20;99.90;;;;;;5067549;28;20488;-77
2022/11/25 04:47:44;;;;;;;10.90;6.65;;;7.10;99.90;;;;;;5071985;28;20488;-77
2022/11/25 04:50:18;;;;;;;20.00;11.02;;;7.00;99.90;;;;;;5061890;28;20048;-77
2022/11/25 04:52:44;;;;;;;30.20;20.13;;;7.00;99.90;;;;;;5072221;28;20102;-77
2022/11/25 04:55:10;;;;;;;32.53;23.77;;;7.00;99.90;;;;;;5064845;28;20033;-77
2022/11/25 04:57:35;;;;;;;13.82;6.30;;;7.00;99.90;;;;;;5059653;28;20027;-77
2022/11/25 05:00:02;;;;;;;10.90;5.95;;;6.90;99.90;;;;;;5062270;28;20021;-77
2022/11/25 05:02:28;;;;;;;16.90;8.88;;;6.90;99.90;;;;;;5069044;28;20032;-78
2022/11/25 05:04:56;;;;;;;11.75;6.90;;;7.00;99.90;;;;;;5070613;28;20548;-77
2022/11/25 05:07:25;;;;;;;27.48;18.00;;;6.90;99.90;;;;;;5068686;28;20061;-77
2022/11/25 05:09:51;;;;;;;32.78;19.80;;;6.90;99.90;;;;;;5070038;28;20112;-77
2022/11/25 05:12:22;;;;;;;14.70;7.07;;;6.90;99.90;;;;;;5068358;28;20057;-77
2022/11/25 05:14:48;;;;;;;10.55;5.80;;;6.90;99.90;;;;;;5073471;28;20035;-77
2022/11/25 05:17:17;;;;;;;12.30;6.68;;;6.80;99.90;;;;;;5073654;28;20105;-77
2022/11/25 05:19:43;;;;;;;27.33;18.92;;;6.90;99.90;;;;;;5069490;28;20507;-77
2022/11/25 05:22:11;;;;;;;43.53;27.92;;;6.90;99.90;;;;;;5073261;28;20028;-77
2022/11/25 05:24:36;;;;;;;20.58;12.88;;;6.80;99.90;;;;;;5066541;28;20056;-77
2022/11/25 05:27:02;;;;;;;20.75;13.93;;;6.80;99.90;;;;;;5072860;28;20017;-77
2022/11/25 05:29:28;;;;;;;42.17;24.73;;;6.90;99.90;;;;;;5063749;28;20017;-77
2022/11/25 05:31:54;;;;;;;50.22;33.90;;;6.80;99.90;;;;;;5072963;28;20025;-77
2022/11/25 05:34:20;;;;;;;36.70;25.77;;;6.80;99.90;;;;;;5066386;28;20057;-77
2022/11/25 05:36:45;;;;;;;35.90;22.90;;;6.70;99.90;;;;;;5073616;28;20029;-77
2022/11/25 05:39:12;;;;;;;22.85;13.57;;;6.70;99.90;;;;;;5073297;28;20028;-77
2022/11/25 05:41:37;;;;;;;34.35;23.13;;;6.60;99.90;;;;;;5074076;28;20074;-77
2022/11/25 05:44:04;;;;;;;23.70;15.30;;;6.50;99.90;;;;;;5072120;28;20040;-77
2022/11/25 05:46:30;;;;;;;62.78;41.75;;;6.50;99.90;;;;;;5073578;28;20024;-77
2022/11/25 05:48:56;;;;;;;31.67;16.17;;;6.40;99.90;;;;;;5070963;28;20021;-78
2022/11/25 05:51:23;;;;;;;22.30;17.50;;;6.40;99.90;;;;;;5073850;28;20024;-77
2022/11/25 05:53:50;;;;;;;21.02;14.45;;;6.40;99.90;;;;;;5069285;28;20028;-77
2022/11/25 05:56:16;;;;;;;31.00;22.23;;;6.40;99.90;;;;;;5077583;28;20082;-77
2022/11/25 05:58:42;;;;;;;20.05;14.95;;;6.40;99.90;;;;;;5077172;28;20024;-77
2022/11/25 06:01:12;;;;;;;22.15;14.73;;;6.30;99.90;;;;;;5063878;28;20455;-77
2022/11/25 06:03:38;;;;;;;23.38;12.88;;;6.30;99.90;;;;;;5075964;28;20074;-77
2022/11/25 06:06:06;;;;;;;29.42;15.48;;;6.20;99.90;;;;;;5076769;28;20040;-77
2022/11/25 06:08:34;;;;;;;32.13;18.80;;;6.30;99.90;;;;;;5068176;28;20568;-77
2022/11/25 06:11:07;;;;;;;24.73;16.60;;;6.20;99.90;;;;;;5070778;28;20016;-77
2022/11/25 06:13:34;;;;;;;23.80;12.80;;;6.30;99.90;;;;;;5072638;28;20060;-77
2022/11/25 06:16:04;;;;;;;80.82;44.40;;;6.20;99.90;;;;;;5071504;28;20541;-77
2022/11/25 06:18:30;;;;;;;36.45;21.92;;;6.20;99.90;;;;;;5062021;28;20468;-77
2022/11/25 06:20:57;;;;;;;57.72;35.80;;;6.20;99.90;;;;;;5073441;28;20056;-77
2022/11/25 06:23:24;;;;;;;77.00;48.40;;;6.20;99.90;;;;;;5067984;28;20025;-77
2022/11/25 06:25:50;;;;;;;31.10;20.42;;;6.20;99.90;;;;;;5069731;28;20059;-77
2022/11/25 06:28:16;;;;;;;19.85;11.45;;;6.20;99.90;;;;;;5064282;28;20020;-77
2022/11/25 06:30:42;;;;;;;22.13;13.15;;;6.20;99.90;;;;;;5060698;28;20033;-77
2022/11/25 06:33:08;;;;;;;56.15;33.05;;;6.20;99.90;;;;;;5061966;28;20514;-77
2022/11/25 06:35:34;;;;;;;64.93;45.72;;;6.20;99.90;;;;;;5069252;28;20029;-77
2022/11/25 06:38:00;;;;;;;57.20;37.42;;;6.20;99.90;;;;;;5071743;28;20070;-77
2022/11/25 06:40:26;;;;;;;65.07;43.13;;;6.30;99.90;;;;;;5071840;28;20025;-77
2022/11/25 06:42:51;;;;;;;15.43;9.73;;;6.30;99.90;;;;;;5072638;28;20021;-77
2022/11/25 06:45:17;;;;;;;14.88;9.57;;;6.60;99.90;;;;;;5061202;28;20443;-77
2022/11/25 06:47:43;;;;;;;18.92;9.30;;;6.90;99.90;;;;;;5069640;28;20108;-77
2022/11/25 06:50:09;;;;;;;31.67;22.13;;;7.30;99.90;;;;;;5071518;28;20028;-77
2022/11/25 06:52:35;;;;;;;56.83;39.67;;;7.40;99.90;;;;;;5075028;28;20027;-77
2022/11/25 06:55:01;;;;;;;14.00;9.70;;;7.50;99.90;;;;;;5063514;28;20033;-77
2022/11/25 06:57:27;;;;;;;19.20;10.45;;;7.60;99.90;;;;;;5077950;28;20355;-77
2022/11/25 06:59:53;;;;;;;13.73;5.97;;;7.70;99.90;;;;;;5067827;28;20097;-77
2022/11/25 07:02:18;;;;;;;10.10;6.97;;;8.00;99.90;;;;;;5059754;28;20021;-78
2022/11/25 07:04:44;;;;;;;10.55;4.95;;;8.30;99.90;;;;;;5071002;28;20021;-80
2022/11/25 07:07:10;;;;;;;7.65;5.07;;;8.60;99.90;;;;;;5068961;28;20028;-80
2022/11/25 07:09:36;;;;;;;7.68;4.32;;;8.90;99.90;;;;;;5072128;28;20099;-78
2022/11/25 07:12:02;;;;;;;11.65;4.68;;;9.10;99.90;;;;;;5071005;28;20055;-78
2022/11/25 07:14:28;;;;;;;6.65;4.18;;;9.30;99.90;;;;;;5069159;28;20158;-80
2022/11/25 07:16:54;;;;;;;9.55;3.95;;;9.40;99.90;;;;;;5071779;28;20016;-78
2022/11/25 07:19:19;;;;;;;10.48;4.53;;;9.70;99.90;;;;;;5066511;28;20032;-79
2022/11/25 07:21:46;;;;;;;9.23;4.03;;;9.80;99.90;;;;;;5072445;28;20400;-79
2022/11/25 07:24:14;;;;;;;7.43;5.63;;;10.00;99.90;;;;;;5058580;28;20053;-78
2022/11/25 07:26:41;;;;;;;11.30;4.38;;;10.10;99.90;;;;;;5073453;28;20020;-78
2022/11/25 07:29:10;;;;;;;8.55;5.65;;;10.20;99.90;;;;;;5062248;28;20024;-78
2022/11/25 07:31:39;;;;;;;8.85;4.22;;;10.30;99.90;;;;;;5071366;28;20194;-79
2022/11/25 07:34:19;;;;;;;11.00;4.80;;;10.40;99.90;;;;;;5062392;28;20063;-77
2022/11/25 07:36:47;;;;;;;12.55;5.10;;;10.40;99.90;;;;;;5062512;28;20080;-78
2022/11/25 07:39:18;;;;;;;13.30;5.03;;;10.40;99.90;;;;;;5063897;28;20088;-78
2022/11/25 07:41:47;;;;;;;8.45;4.03;;;10.50;99.90;;;;;;5073908;28;20021;-78
2022/11/25 07:44:14;;;;;;;10.27;4.57;;;10.40;99.90;;;;;;5066961;28;20057;-79
2022/11/25 07:46:46;;;;;;;17.80;8.00;;;10.40;99.90;;;;;;5071073;28;20801;-79
2022/11/25 07:49:14;;;;;;;11.98;5.30;;;10.30;99.90;;;;;;5073001;28;20485;-80
2022/11/25 07:51:43;;;;;;;10.85;5.00;;;10.30;99.90;;;;;;5066085;28;20021;-82
2022/11/25 07:54:11;;;;;;;13.68;5.13;;;10.20;99.90;;;;;;5065843;28;20036;-81
2022/11/25 07:56:39;;;;;;;10.82;5.32;;;10.20;99.90;;;;;;5073819;28;20021;-81
2022/11/25 07:59:06;;;;;;;10.63;5.82;;;10.20;99.90;;;;;;5067856;28;20032;-82
2022/11/25 08:01:32;;;;;;;12.90;6.30;;;10.20;99.90;;;;;;5073933;28;20048;-79
2022/11/25 08:03:58;;;;;;;10.18;5.72;;;10.20;99.90;;;;;;5063094;28;20508;-81
2022/11/25 08:06:27;;;;;;;15.32;7.13;;;10.10;99.90;;;;;;5069833;28;20028;-80
2022/11/25 08:08:55;;;;;;;13.30;5.07;;;10.10;99.90;;;;;;5074710;28;20150;-81
2022/11/25 08:11:24;;;;;;;14.25;5.15;;;10.10;99.90;;;;;;5075030;28;20052;-80
2022/11/25 08:13:50;;;;;;;9.07;5.20;;;10.00;99.90;;;;;;5059458;28;20068;-80
2022/11/25 08:16:19;;;;;;;14.02;4.70;;;10.00;99.90;;;;;;5065775;28;20107;-81
2022/11/25 08:18:45;;;;;;;9.70;7.38;;;10.00;99.90;;;;;;5069266;28;20026;-82
2022/11/25 08:21:13;;;;;;;8.50;6.00;;;9.90;99.90;;;;;;5069030;28;20016;-80
2022/11/25 08:23:42;;;;;;;11.75;5.88;;;9.90;99.90;;;;;;5065172;28;20055;-79
2022/11/25 08:26:10;;;;;;;12.10;6.20;;;9.80;99.90;;;;;;5062333;28;20162;-80
2022/11/25 08:28:37;;;;;;;11.73;6.10;;;9.80;99.90;;;;;;5067266;28;20025;-79
2022/11/25 08:31:06;;;;;;;13.73;6.40;;;9.80;99.90;;;;;;5071297;28;20040;-79
2022/11/25 08:33:32;;;;;;;10.60;5.32;;;9.80;99.90;;;;;;5073371;28;20495;-80
2022/11/25 08:35:58;;;;;;;9.43;5.88;;;9.80;99.90;;;;;;5065844;28;20224;-79
2022/11/25 08:38:24;;;;;;;11.45;6.18;;;9.90;99.90;;;;;;5060944;28;20020;-78
2022/11/25 08:40:50;;;;;;;12.05;5.85;;;9.90;99.90;;;;;;5065447;28;20069;-78
2022/11/25 08:43:17;;;;;;;10.32;6.95;;;9.90;99.90;;;;;;5061157;28;20028;-78
2022/11/25 08:45:43;;;;;;;11.25;5.53;;;9.80;99.90;;;;;;5064720;28;20013;-78
2022/11/25 08:48:09;;;;;;;19.05;6.05;;;9.90;99.90;;;;;;5061875;28;20092;-79
2022/11/25 08:50:35;;;;;;;14.52;6.43;;;9.90;99.90;;;;;;5068403;28;20013;-78
2022/11/25 08:53:01;;;;;;;10.15;5.80;;;9.90;99.90;;;;;;5076813;28;20562;-77
2022/11/25 08:55:28;;;;;;;14.65;6.88;;;9.90;99.90;;;;;;5069467;28;20025;-77
2022/11/25 08:57:53;;;;;;;7.22;4.82;;;10.00;99.90;;;;;;5072538;28;20500;-78
2022/11/25 09:00:21;;;;;;;12.55;5.57;;;10.00;99.90;;;;;;5069253;28;20017;-76
2022/11/25 09:02:47;;;;;;;7.68;5.35;;;10.00;99.90;;;;;;5070842;28;20029;-77
2022/11/25 09:05:16;;;;;;;5.20;4.53;;;10.00;99.90;;;;;;5072748;28;20881;-77
2022/11/25 09:07:42;;;;;;;6.25;4.60;;;10.00;99.90;;;;;;5078979;28;20040;-77
2022/11/25 09:10:12;;;;;;;5.35;4.18;;;10.00;99.90;;;;;;5066532;28;20025;-76
2022/11/25 09:12:38;;;;;;;5.10;3.92;;;10.00;99.90;;;;;;5073266;28;20473;-76
2022/11/25 09:15:04;;;;;;;5.75;4.20;;;10.00;99.90;;;;;;5069250;28;20036;-77
2022/11/25 09:17:30;;;;;;;4.88;3.72;;;10.00;99.90;;;;;;5068990;28;20040;-77
2022/11/25 09:19:56;;;;;;;8.10;4.18;;;10.00;99.90;;;;;;5066063;28;20024;-76
2022/11/25 09:22:22;;;;;;;11.05;4.10;;;10.00;99.90;;;;;;5072207;28;20500;-76
2022/11/25 09:24:48;;;;;;;9.23;4.55;;;10.00;99.90;;;;;;5072807;28;20080;-75
2022/11/25 09:27:14;;;;;;;6.85;4.82;;;10.00;99.90;;;;;;5064504;28;20163;-76
2022/11/25 09:29:40;;;;;;;8.38;4.90;;;10.00;99.90;;;;;;5064834;28;20167;-75
2022/11/25 09:32:05;;;;;;;6.43;3.60;;;10.00;99.90;;;;;;5085244;28;20554;-77
2022/11/25 09:34:31;;;;;;;5.90;4.40;;;9.90;99.90;;;;;;5068887;28;20036;-77
2022/11/25 09:36:57;;;;;;;8.25;4.65;;;9.90;99.90;;;;;;5073465;28;20384;-76
2022/11/25 09:39:28;;;;;;;6.22;4.30;;;9.90;99.90;;;;;;5073657;28;20069;-77
2022/11/25 09:48:14;;;;;;;8.80;4.70;;;9.90;99.90;;;;;;5070683;28;20036;-77
2022/11/25 09:51:17;;;;;;;9.57;4.63;;;9.90;99.90;;;;;;5072714;28;20054;-75
2022/11/25 09:53:49;;;;;;;8.43;4.50;;;9.90;99.90;;;;;;5068181;28;20040;-75
2022/11/25 09:56:38;;;;;;;9.32;4.50;;;9.90;99.90;;;;;;5073950;28;20121;-75
2022/11/25 09:59:26;;;;;;;8.70;4.93;;;9.90;99.90;;;;;;5069340;28;20033;-76
2022/11/25 10:01:59;;;;;;;12.70;4.78;;;9.90;99.90;;;;;;5069688;28;20048;-76
2022/11/25 10:04:39;;;;;;;7.78;4.95;;;9.90;99.90;;;;;;5062592;28;20115;-76
2022/11/25 10:07:14;;;;;;;6.35;4.75;;;9.90;99.90;;;;;;5068154;28;20020;-77
2022/11/25 10:09:39;;;;;;;8.70;4.72;;;10.00;99.90;;;;;;5063802;28;20033;-77
2022/11/25 10:12:12;;;;;;;6.28;3.95;;;10.00;99.90;;;;;;5069332;28;20025;-76
2022/11/25 10:14:48;;;;;;;9.20;4.00;;;10.00;99.90;;;;;;5069954;28;20032;-76
2022/11/25 10:17:14;;;;;;;5.40;3.25;;;10.10;99.90;;;;;;5069032;28;20025;-75
2022/11/25 10:20:01;;;;;;;6.50;3.20;;;10.20;99.90;;;;;;5068929;28;20035;-76
2022/11/25 10:22:34;;;;;;;4.30;3.30;;;10.20;99.90;;;;;;5068010;28;20384;-76
2022/11/25 10:25:23;;;;;;;8.00;3.67;;;10.20;99.90;;;;;;5072054;28;20049;-76
2022/11/25 10:27:55;;;;;;;8.13;3.28;;;10.10;99.90;;;;;;5071721;28;20032;-75
2022/11/25 10:30:27;;;;;;;7.60;3.70;;;10.10;99.90;;;;;;5065689;28;20021;-76
2022/11/25 10:33:17;;;;;;;13.20;4.78;;;10.00;99.90;;;;;;5077044;28;20031;-76
2022/11/25 10:35:49;;;;;;;3.47;2.83;;;10.00;99.90;;;;;;5062104;28;20032;-76
2022/11/25 10:38:23;;;;;;;7.13;3.78;;;9.90;99.90;;;;;;5070477;28;20454;-76
2022/11/25 10:40:51;;;;;;;7.28;4.88;;;9.90;99.90;;;;;;5067894;28;20048;-78
2022/11/25 10:43:17;;;;;;;8.80;3.88;;;9.90;99.90;;;;;;5077284;28;20035;-76
2022/11/25 10:45:55;;;;;;;6.93;3.65;;;9.90;99.90;;;;;;5072041;28;20111;-75
2022/11/25 10:48:27;;;;;;;9.27;4.93;;;9.90;99.90;;;;;;5060479;28;20024;-76
2022/11/25 10:51:51;;;;;;;8.27;4.35;;;9.90;99.90;;;;;;5068042;28;20025;-75
2022/11/25 10:54:22;;;;;;;7.00;3.92;;;9.90;99.90;;;;;;5013663;28;20572;-77
2022/11/25 10:56:48;;;;;;;;;;;9.90;99.90;;;;;;5067562;28;20025;-76
2022/11/25 10:59:26;;;;;;;7.43;3.70;;;9.90;99.90;;;;;;5073944;28;19915;-77
2022/11/25 11:02:06;;;;;;;3.85;3.47;;;9.90;99.90;;;;;;5071810;28;20031;-77
2022/11/25 11:04:33;;;;;;;11.35;4.53;;;9.90;99.90;;;;;;5067326;28;20025;-77
2022/11/25 11:07:07;;;;;;;7.30;3.83;;;9.90;99.90;;;;;;5071903;28;20077;-76
2022/11/25 11:09:40;;;;;;;5.28;3.17;;;9.90;99.90;;;;;;5057866;28;20158;-76
2022/11/25 11:12:26;;;;;;;12.52;4.25;;;9.90;99.90;;;;;;5069262;28;20028;-76
2022/11/25 11:14:53;;;;;;;5.00;4.20;;;10.00;99.90;;;;;;5069151;28;20111;-77
2022/11/25 11:17:39;;;;;;;6.32;3.80;;;10.00;99.90;;;;;;5068608;28;20021;-77
2022/11/25 11:20:07;;;;;;;12.45;4.80;;;10.00;99.90;;;;;;5064914;28;20033;-76
2022/11/25 11:22:46;;;;;;;8.13;3.95;;;10.00;99.90;;;;;;5073009;28;20056;-76
2022/11/25 11:25:24;;;;;;;7.15;4.40;;;10.10;99.90;;;;;;5065470;28;20668;-78
2022/11/25 11:27:50;;;;;;;7.75;4.30;;;10.10;99.90;;;;;;5075151;28;20039;-76
2022/11/25 11:30:24;;;;;;;6.50;4.05;;;10.10;99.90;;;;;;5066967;28;20504;-77
2022/11/25 11:32:57;;;;;;;6.05;3.58;;;10.10;99.90;;;;;;5071231;28;20031;-76
2022/11/25 11:35:46;;;;;;;5.25;3.08;;;10.10;99.90;;;;;;5065055;28;20025;-78
2022/11/25 11:38:25;;;;;;;6.68;3.20;;;10.10;99.90;;;;;;5067798;28;20035;-76
2022/11/25 11:41:14;;;;;;;6.18;2.92;;;10.10;99.90;;;;;;5064956;28;20033;-77
2022/11/25 11:44:18;;;;;;;10.95;3.25;;;10.00;99.90;;;;;;5063995;28;20095;-80
2022/11/25 11:47:02;;;;;;;7.00;3.88;;;10.00;99.90;;;;;;5053085;28;20036;-76
2022/11/25 11:49:57;;;;;;;6.18;2.58;;;9.90;99.90;;;;;;5071770;28;20033;-77
2022/11/25 11:52:33;;;;;;;4.97;2.80;;;9.90;99.90;;;;;;5064171;28;20020;-80
2022/11/25 11:55:25;;;;;;;3.22;2.47;;;9.80;99.90;;;;;;5070722;28;20082;-78
2022/11/25 11:58:05;;;;;;;4.78;2.78;;;9.80;99.90;;;;;;5058103;28;20028;-77
2022/11/25 12:00:38;;;;;;;5.43;3.93;;;9.80;99.90;;;;;;5062512;28;20064;-77
2022/11/25 12:03:15;;;;;;;5.43;3.22;;;9.70;99.90;;;;;;5069485;28;20020;-77
2022/11/25 12:05:41;;;;;;;4.93;3.08;;;9.80;99.90;;;;;;5064011;28;20037;-77
2022/11/25 12:08:26;;;;;;;5.05;3.03;;;9.80;99.90;;;;;;5066667;28;20024;-77
2022/11/25 12:11:09;;;;;;;4.20;3.17;;;9.80;99.90;;;;;;5069258;28;20027;-78
2022/11/25 12:13:35;;;;;;;7.20;3.40;;;9.80;99.90;;;;;;5063196;28;20021;-77
2022/11/25 12:16:07;;;;;;;5.20;3.00;;;9.90;99.90;;;;;;5066068;28;20025;-77
2022/11/25 12:18:46;;;;;;;9.13;3.53;;;9.90;99.90;;;;;;5075677;28;20039;-77
2022/11/25 12:21:30;;;;;;;6.25;3.33;;;10.00;99.90;;;;;;5065610;28;20029;-78
2022/11/25 12:24:22;;;;;;;3.47;2.72;;;10.00;99.90;;;;;;5071279;28;20053;-78
2022/11/25 12:27:10;;;;;;;4.38;2.97;;;10.10;99.90;;;;;;5068220;28;20098;-79
2022/11/25 12:29:48;;;;;;;6.13;3.30;;;10.10;99.90;;;;;;5058673;28;20052;-77
2022/11/25 12:32:43;;;;;;;6.20;2.90;;;10.10;99.90;;;;;;5067204;28;20039;-79
2022/11/25 12:35:08;;;;;;;3.42;3.03;;;10.10;99.90;;;;;;5067293;28;20439;-78
2022/11/25 12:37:43;;;;;;;5.20;3.22;;;10.10;99.90;;;;;;5062943;28;20050;-78
2022/11/25 12:40:20;;;;;;;5.15;3.78;;;10.10;99.90;;;;;;5068635;28;20103;-77
2022/11/25 12:42:48;;;;;;;3.08;2.63;;;10.10;99.90;;;;;;5070087;28;20020;-78
2022/11/25 12:45:17;;;;;;;3.80;2.80;;;10.10;99.90;;;;;;5067169;28;20124;-78
2022/11/25 12:47:44;;;;;;;37.72;21.52;;;10.10;99.90;;;;;;5071070;28;20519;-77
2022/11/25 12:50:58;;;;;;;3.75;2.70;;;10.10;99.90;;;;;;5067314;28;20028;-79
2022/11/25 12:53:54;;;;;;;5.47;2.53;;;10.20;99.90;;;;;;5036702;28;20021;-77
2022/11/25 12:56:29;;;;;;;4.10;3.03;;;10.20;99.90;;;;;;5059780;28;20024;-79
2022/11/25 12:59:04;;;;;;;3.05;2.60;;;10.30;99.90;;;;;;5061506;28;20112;-80
2022/11/25 13:01:58;;;;;;;2.80;2.50;;;10.40;99.90;;;;;;5061086;28;20029;-78
2022/11/25 13:04:57;;;;;;;3.65;2.63;;;10.40;99.90;;;;;;5069880;28;20036;-78
2022/11/25 13:07:31;;;;;;;9.82;2.90;;;10.50;99.90;;;;;;5063147;28;20447;-77
2022/11/25 13:10:32;;;;;;;4.55;2.30;;;10.40;99.90;;;;;;5071307;28;20035;-79